الصفحة الرئيسية
METAR-TAF:

METAR-TAF

مطار :

كيغالي, رواندا

دائرة عرض: 01-58S, خط طول: 030-07E, ارتفاع: 1491 متر

مراقبة الطقس الحالي

تاريخ ووقت الإصدار 24 دقيقة قبل الساعة 05:00UTC
ريح 3 عقدة من الجنوب الغربي
درجة الحرارة 18°درجة مئوية
الرطوبة 68%
ضغط 1022 hPa
الرؤية 10 كم أو أكثر
غيوم قليلة على ارتفاع 2300 قدم

METAR: HRYR 160500Z 23003KT 9999 FEW023 18/12 Q1022 NOSIG

زمن: 07:24 (05:24 UTC)

توقعات

تاريخ ووقت الإصدار 6ساعات و 24 دقيقة قبل الساعة 23:00UTC
التوقعات صالحة من16 الساعة 00 UTC إلى 17 الساعة 06 UTC
ريح 5 عقدة من الجنوب
الرؤية 10 كم أو أكثر
غيوم متفرقة على ارتفاع 2500 قدم
غيوم متفرقة على ارتفاع 10000 قدم
من UTC
ريح 8 عقدة من الجنوب
غيوم متفرقة على ارتفاع 2500 قدم
أصبح
من 16 الساعة 22 UTC إلى 17 الساعة 02 UTC
ريح 6 عقدة من الشمال/الشمال الغربي
غيوم متفرقة على ارتفاع 2500 قدم
غيوم متفرقة على ارتفاع 10000 قدم

TAF: HRYR 152300Z 1600/1706 19005KT 9999 SCT025 SCT100 FM 161000 17008KT SCT025 BECMG 1622/1702 34006KT SCT025 SCT100

أرصاد الطقس والتوقعات من أكثر من 4000 مطار (تقارير الطقس للمطار METAR والتنبؤ بالطقس بالمطارTAF).

المحطات المتاحة هي النقط الصفراء والحمراء على الخريطة.

حرك المؤشر فوق النقطة لمعرفة اسم المحطة.

ثم انقر لمعرفة أرصاد وتوقعات الطقس.

لتغيير الخارطة: اضغط على الأزرار الخضراء مع رمز الصليب الأسود للتكبير. على الزر الأخضر مع شرطة للتصغير، أو على الأسهم الخضراء للخرائط المجاورة.


METAR-TAF: